Cumbernauld, United Kingdom
Current Conditions -  °F | °C
As of 7:50 AM on Saturday 20 Dec 2014 (Local Time) from EGPF Reporting Station
Broken Clouds Broken Clouds  
Wind Chill: 37°   Ceiling: 3000
Heat Index: 45°   Visibility: 6mi
Dew Point: 37°   Wind: 16mph
Humidity: 76%   Direction: 280°W
Pressure: 29.97"   Gusts: NA
Location:  55.95°N, 3.99°W
Report Text: EGPF 200750Z AUTO 28014KT 9999 BKN030 07/03 Q1015
Loading
Personal Weather Stations






























Interactive Weather Map New forecast layout! Learn more

10-Day Weather Forecast

Advertisements
Track Severe Weather on mobile